sensor_id;sensor_type;location;lat;lon;timestamp;pressure;altitude;pressure_sealevel;temperature;humidity
47761;BME280;33524;55.434;38.520;2022-07-04T00:01:23;100162.00;;;16.37;73.38
47761;BME280;33524;55.434;38.520;2022-07-04T00:03:51;100159.22;;;16.64;64.08
47761;BME280;33524;55.434;38.520;2022-07-04T00:06:19;100164.59;;;16.72;69.70
47761;BME280;33524;55.434;38.520;2022-07-04T00:08:47;100156.69;;;16.37;71.87
47761;BME280;33524;55.434;38.520;2022-07-04T00:11:15;100170.09;;;16.27;74.54
47761;BME280;33524;55.434;38.520;2022-07-04T00:13:43;100166.75;;;16.25;67.31
47761;BME280;33524;55.434;38.520;2022-07-04T00:16:11;100172.56;;;16.28;68.35
47761;BME280;33524;55.434;38.520;2022-07-04T00:18:39;100180.00;;;16.25;69.52
47761;BME280;33524;55.434;38.520;2022-07-04T00:21:07;100173.34;;;16.03;76.07
47761;BME280;33524;55.434;38.520;2022-07-04T00:23:35;100171.44;;;16.13;74.17
47761;BME280;33524;55.434;38.520;2022-07-04T00:26:03;100175.81;;;16.22;71.12
47761;BME280;33524;55.434;38.520;2022-07-04T00:28:31;100172.81;;;16.17;71.05
47761;BME280;33524;55.434;38.520;2022-07-04T00:30:58;100177.81;;;16.20;67.32
47761;BME280;33524;55.434;38.520;2022-07-04T00:33:27;100176.22;;;16.09;68.61
47761;BME280;33524;55.434;38.520;2022-07-04T00:35:54;100188.19;;;15.96;73.60
47761;BME280;33524;55.434;38.520;2022-07-04T00:38:22;100182.28;;;15.84;72.04
47761;BME280;33524;55.434;38.520;2022-07-04T00:40:50;100183.06;;;15.94;69.61
47761;BME280;33524;55.434;38.520;2022-07-04T00:43:25;100190.56;;;15.99;69.13
47761;BME280;33524;55.434;38.520;2022-07-04T00:45:54;100189.19;;;15.94;68.99
47761;BME280;33524;55.434;38.520;2022-07-04T00:48:22;100190.84;;;15.96;69.12
47761;BME280;33524;55.434;38.520;2022-07-04T00:50:51;100187.75;;;15.82;76.55
47761;BME280;33524;55.434;38.520;2022-07-04T00:53:21;100181.16;;;15.86;69.06
47761;BME280;33524;55.434;38.520;2022-07-04T00:55:51;100187.75;;;16.00;68.02
47761;BME280;33524;55.434;38.520;2022-07-04T00:58:21;100186.16;;;16.07;68.13
47761;BME280;33524;55.434;38.520;2022-07-04T01:00:49;100181.06;;;16.32;64.69
47761;BME280;33524;55.434;38.520;2022-07-04T01:03:17;100184.78;;;16.21;66.81
47761;BME280;33524;55.434;38.520;2022-07-04T01:05:45;100186.91;;;16.18;66.17
47761;BME280;33524;55.434;38.520;2022-07-04T01:08:14;100196.63;;;16.09;67.57
47761;BME280;33524;55.434;38.520;2022-07-04T01:10:43;100192.34;;;16.16;67.06
47761;BME280;33524;55.434;38.520;2022-07-04T01:13:29;100191.22;;;16.01;69.86
47761;BME280;33524;55.434;38.520;2022-07-04T01:15:57;100196.59;;;15.91;69.40
47761;BME280;33524;55.434;38.520;2022-07-04T01:18:25;100199.41;;;15.89;68.82
47761;BME280;33524;55.434;38.520;2022-07-04T01:20:53;100196.91;;;16.06;66.76
47761;BME280;33524;55.434;38.520;2022-07-04T01:23:21;100201.84;;;16.01;67.90
47761;BME280;33524;55.434;38.520;2022-07-04T01:25:49;100201.53;;;16.04;68.52
47761;BME280;33524;55.434;38.520;2022-07-04T01:28:24;100200.16;;;16.18;66.98
47761;BME280;33524;55.434;38.520;2022-07-04T01:30:52;100199.87;;;16.21;67.76
47761;BME280;33524;55.434;38.520;2022-07-04T01:33:20;100205.34;;;16.19;71.31
47761;BME280;33524;55.434;38.520;2022-07-04T01:35:48;100208.53;;;16.23;72.06
47761;BME280;33524;55.434;38.520;2022-07-04T01:38:17;100203.50;;;16.20;72.17
47761;BME280;33524;55.434;38.520;2022-07-04T01:40:44;100202.34;;;16.22;73.10
47761;BME280;33524;55.434;38.520;2022-07-04T01:43:12;100196.16;;;16.31;70.00
47761;BME280;33524;55.434;38.520;2022-07-04T01:45:41;100201.81;;;16.37;69.52
47761;BME280;33524;55.434;38.520;2022-07-04T01:48:10;100206.97;;;16.38;71.65
47761;BME280;33524;55.434;38.520;2022-07-04T01:50:39;100199.56;;;16.42;69.60
47761;BME280;33524;55.434;38.520;2022-07-04T01:53:07;100203.91;;;16.51;66.96
47761;BME280;33524;55.434;38.520;2022-07-04T01:55:35;100200.66;;;16.57;66.07
47761;BME280;33524;55.434;38.520;2022-07-04T01:58:03;100200.34;;;16.60;67.52
47761;BME280;33524;55.434;38.520;2022-07-04T02:00:31;100207.66;;;16.58;71.90
47761;BME280;33524;55.434;38.520;2022-07-04T02:03:18;100211.69;;;16.26;80.08
47761;BME280;33524;55.434;38.520;2022-07-04T02:05:46;100214.88;;;16.12;81.08
47761;BME280;33524;55.434;38.520;2022-07-04T02:08:14;100212.28;;;16.38;71.67
47761;BME280;33524;55.434;38.520;2022-07-04T02:10:42;100210.75;;;16.53;69.17
47761;BME280;33524;55.434;38.520;2022-07-04T02:13:10;100220.84;;;16.76;67.88
47761;BME280;33524;55.434;38.520;2022-07-04T02:15:39;100208.72;;;16.91;69.73
47761;BME280;33524;55.434;38.520;2022-07-04T02:18:10;100214.72;;;16.93;67.14
47761;BME280;33524;55.434;38.520;2022-07-04T02:20:39;100217.56;;;17.00;65.65
47761;BME280;33524;55.434;38.520;2022-07-04T02:23:07;100222.34;;;17.23;63.01
47761;BME280;33524;55.434;38.520;2022-07-04T02:25:35;100216.63;;;17.86;56.18
47761;BME280;33524;55.434;38.520;2022-07-04T02:28:04;100204.66;;;18.64;53.31
47761;BME280;33524;55.434;38.520;2022-07-04T02:30:32;100207.28;;;19.05;51.70
47761;BME280;33524;55.434;38.520;2022-07-04T02:33:00;100212.50;;;19.38;50.41
47761;BME280;33524;55.434;38.520;2022-07-04T02:35:28;100207.59;;;19.19;54.39
47761;BME280;33524;55.434;38.520;2022-07-04T02:37:56;100211.59;;;19.23;51.18
47761;BME280;33524;55.434;38.520;2022-07-04T02:40:24;100209.34;;;19.74;49.64
47761;BME280;33524;55.434;38.520;2022-07-04T02:42:52;100217.09;;;19.92;48.99
47761;BME280;33524;55.434;38.520;2022-07-04T02:45:20;100222.81;;;20.12;48.50
47761;BME280;33524;55.434;38.520;2022-07-04T02:47:48;100215.81;;;20.11;48.58
47761;BME280;33524;55.434;38.520;2022-07-04T02:50:16;100220.37;;;20.25;48.08
47761;BME280;33524;55.434;38.520;2022-07-04T02:52:44;100219.59;;;20.40;47.74
47761;BME280;33524;55.434;38.520;2022-07-04T02:55:11;100224.94;;;20.63;47.03
47761;BME280;33524;55.434;38.520;2022-07-04T02:57:39;100227.66;;;20.78;46.45
47761;BME280;33524;55.434;38.520;2022-07-04T03:00:11;100228.50;;;20.93;46.10
47761;BME280;33524;55.434;38.520;2022-07-04T03:02:39;100219.00;;;21.05;45.85
47761;BME280;33524;55.434;38.520;2022-07-04T03:05:07;100220.47;;;21.23;45.53
47761;BME280;33524;55.434;38.520;2022-07-04T03:07:35;100225.06;;;21.29;45.50
47761;BME280;33524;55.434;38.520;2022-07-04T03:10:03;100226.19;;;21.49;45.26
47761;BME280;33524;55.434;38.520;2022-07-04T03:12:31;100235.41;;;21.62;44.91
47761;BME280;33524;55.434;38.520;2022-07-04T03:14:59;100235.47;;;21.83;44.57
47761;BME280;33524;55.434;38.520;2022-07-04T03:17:29;100230.06;;;21.98;44.28
47761;BME280;33524;55.434;38.520;2022-07-04T03:19:58;100231.34;;;22.02;53.27
47761;BME280;33524;55.434;38.520;2022-07-04T03:22:26;100226.47;;;22.27;44.17
47761;BME280;33524;55.434;38.520;2022-07-04T03:24:54;100229.91;;;22.43;43.93
47761;BME280;33524;55.434;38.520;2022-07-04T03:27:22;100228.84;;;22.65;43.59
47761;BME280;33524;55.434;38.520;2022-07-04T03:29:50;100225.94;;;22.88;43.06
47761;BME280;33524;55.434;38.520;2022-07-04T03:32:19;100226.97;;;23.15;42.82
47761;BME280;33524;55.434;38.520;2022-07-04T03:34:46;100225.22;;;23.36;42.45
47761;BME280;33524;55.434;38.520;2022-07-04T03:37:15;100231.88;;;23.47;42.88
47761;BME280;33524;55.434;38.520;2022-07-04T03:39:43;100230.97;;;23.33;43.16
47761;BME280;33524;55.434;38.520;2022-07-04T03:42:17;100236.31;;;23.74;42.21
47761;BME280;33524;55.434;38.520;2022-07-04T03:44:45;100233.97;;;24.06;41.64
47761;BME280;33524;55.434;38.520;2022-07-04T03:47:13;100241.44;;;24.37;41.41
47761;BME280;33524;55.434;38.520;2022-07-04T03:49:41;100234.44;;;24.70;40.72
47761;BME280;33524;55.434;38.520;2022-07-04T03:52:10;100229.84;;;24.97;40.10
47761;BME280;33524;55.434;38.520;2022-07-04T03:54:37;100235.19;;;25.30;39.55
47761;BME280;33524;55.434;38.520;2022-07-04T03:57:05;100233.03;;;25.52;40.91
47761;BME280;33524;55.434;38.520;2022-07-04T03:59:33;100227.06;;;25.89;39.82
47761;BME280;33524;55.434;38.520;2022-07-04T04:02:02;100232.31;;;26.15;39.63
47761;BME280;33524;55.434;38.520;2022-07-04T04:04:30;100221.38;;;26.35;39.96
47761;BME280;33524;55.434;38.520;2022-07-04T04:07:16;100226.22;;;26.59;39.78
47761;BME280;33524;55.434;38.520;2022-07-04T04:09:44;100231.31;;;26.92;39.52
47761;BME280;33524;55.434;38.520;2022-07-04T04:12:12;100229.38;;;27.17;39.14
47761;BME280;33524;55.434;38.520;2022-07-04T04:14:40;100224.59;;;27.38;39.14
47761;BME280;33524;55.434;38.520;2022-07-04T04:17:09;100215.66;;;27.56;39.17
47761;BME280;33524;55.434;38.520;2022-07-04T04:19:37;100221.75;;;27.82;38.88
47761;BME280;33524;55.434;38.520;2022-07-04T04:22:04;100215.75;;;28.10;38.28
47761;BME280;33524;55.434;38.520;2022-07-04T04:24:33;100222.75;;;28.41;38.15
47761;BME280;33524;55.434;38.520;2022-07-04T04:27:00;100221.16;;;28.64;38.04
47761;BME280;33524;55.434;38.520;2022-07-04T04:29:28;100229.03;;;28.89;37.82
47761;BME280;33524;55.434;38.520;2022-07-04T04:31:56;100223.63;;;29.12;37.60
47761;BME280;33524;55.434;38.520;2022-07-04T04:34:24;100224.63;;;29.35;37.52
47761;BME280;33524;55.434;38.520;2022-07-04T04:36:52;100219.87;;;29.54;37.11
47761;BME280;33524;55.434;38.520;2022-07-04T04:39:20;100228.03;;;29.83;37.16
47761;BME280;33524;55.434;38.520;2022-07-04T04:41:48;100229.50;;;30.02;37.13
47761;BME280;33524;55.434;38.520;2022-07-04T04:44:16;100232.44;;;30.29;36.59
47761;BME280;33524;55.434;38.520;2022-07-04T04:46:44;100222.88;;;30.61;36.62
47761;BME280;33524;55.434;38.520;2022-07-04T04:49:12;100229.28;;;30.88;36.30
47761;BME280;33524;55.434;38.520;2022-07-04T04:51:40;100222.81;;;31.11;36.04
47761;BME280;33524;55.434;38.520;2022-07-04T04:54:09;100223.13;;;31.37;35.80
47761;BME280;33524;55.434;38.520;2022-07-04T04:56:36;100220.72;;;31.63;35.76
47761;BME280;33524;55.434;38.520;2022-07-04T04:59:04;100218.75;;;31.80;35.59
47761;BME280;33524;55.434;38.520;2022-07-04T05:01:32;100224.00;;;32.14;35.38
47761;BME280;33524;55.434;38.520;2022-07-04T05:04:08;100222.31;;;32.40;34.79
47761;BME280;33524;55.434;38.520;2022-07-04T05:06:37;100220.06;;;32.64;35.01
47761;BME280;33524;55.434;38.520;2022-07-04T05:09:05;100226.06;;;32.34;35.59
47761;BME280;33524;55.434;38.520;2022-07-04T05:11:33;100223.44;;;32.82;34.94
47761;BME280;33524;55.434;38.520;2022-07-04T05:14:01;100220.91;;;33.12;34.80
47761;BME280;33524;55.434;38.520;2022-07-04T05:16:29;100223.75;;;32.85;35.35
47761;BME280;33524;55.434;38.520;2022-07-04T05:18:57;100224.06;;;33.57;34.29
47761;BME280;33524;55.434;38.520;2022-07-04T05:21:26;100222.28;;;33.93;33.94
47761;BME280;33524;55.434;38.520;2022-07-04T05:23:55;100215.75;;;34.25;33.45
47761;BME280;33524;55.434;38.520;2022-07-04T05:26:23;100221.22;;;34.46;33.27
47761;BME280;33524;55.434;38.520;2022-07-04T05:28:52;100228.31;;;34.72;32.98
47761;BME280;33524;55.434;38.520;2022-07-04T05:31:19;100226.87;;;34.95;32.68
47761;BME280;33524;55.434;38.520;2022-07-04T05:33:47;100229.84;;;35.25;32.50
47761;BME280;33524;55.434;38.520;2022-07-04T05:36:15;100221.75;;;34.48;33.87
47761;BME280;33524;55.434;38.520;2022-07-04T05:38:43;100218.19;;;35.53;32.38
47761;BME280;33524;55.434;38.520;2022-07-04T05:41:11;100221.44;;;35.61;32.04
47761;BME280;33524;55.434;38.520;2022-07-04T05:43:40;100218.72;;;36.05;31.57
47761;BME280;33524;55.434;38.520;2022-07-04T05:46:25;100212.47;;;36.34;31.35
47761;BME280;33524;55.434;38.520;2022-07-04T05:48:54;100219.56;;;36.69;30.94
47761;BME280;33524;55.434;38.520;2022-07-04T05:51:22;100218.62;;;37.03;30.52
47761;BME280;33524;55.434;38.520;2022-07-04T05:53:50;100208.78;;;37.26;30.25
47761;BME280;33524;55.434;38.520;2022-07-04T05:56:18;100200.13;;;37.38;30.25
47761;BME280;33524;55.434;38.520;2022-07-04T05:58:46;100205.78;;;37.66;30.00
47761;BME280;33524;55.434;38.520;2022-07-04T06:01:14;100202.87;;;37.95;29.63
47761;BME280;33524;55.434;38.520;2022-07-04T06:03:43;100202.81;;;37.81;29.88
47761;BME280;33524;55.434;38.520;2022-07-04T06:06:10;100193.00;;;38.13;29.64
47761;BME280;33524;55.434;38.520;2022-07-04T06:08:38;100197.63;;;37.80;27.87
47761;BME280;33524;55.434;38.520;2022-07-04T06:11:07;100205.75;;;38.04;29.92
47761;BME280;33524;55.434;38.520;2022-07-04T06:13:35;100193.22;;;38.77;28.82
47761;BME280;33524;55.434;38.520;2022-07-04T06:16:02;100197.91;;;39.18;28.39
47761;BME280;33524;55.434;38.520;2022-07-04T06:18:31;100199.91;;;39.40;28.08
47761;BME280;33524;55.434;38.520;2022-07-04T06:20:58;100205.38;;;39.68;27.73
47761;BME280;33524;55.434;38.520;2022-07-04T06:23:26;100205.53;;;39.85;27.57
47761;BME280;33524;55.434;38.520;2022-07-04T06:25:55;100213.41;;;40.01;27.34
47761;BME280;33524;55.434;38.520;2022-07-04T06:28:22;100197.75;;;40.10;27.29
47761;BME280;33524;55.434;38.520;2022-07-04T06:31:11;100194.94;;;40.24;27.18
47761;BME280;33524;55.434;38.520;2022-07-04T06:33:39;100196.31;;;40.35;27.00
47761;BME280;33524;55.434;38.520;2022-07-04T06:36:26;100198.56;;;40.64;26.72
47761;BME280;33524;55.434;38.520;2022-07-04T06:38:58;100202.72;;;40.93;26.32
47761;BME280;33524;55.434;38.520;2022-07-04T06:41:27;100198.12;;;41.20;25.96
47761;BME280;33524;55.434;38.520;2022-07-04T06:43:55;100184.69;;;41.27;25.89
47761;BME280;33524;55.434;38.520;2022-07-04T06:46:23;100200.56;;;39.73;27.73
47761;BME280;33524;55.434;38.520;2022-07-04T06:48:51;100190.50;;;39.91;23.76
47761;BME280;33524;55.434;38.520;2022-07-04T06:51:19;100194.41;;;41.33;25.88
47761;BME280;33524;55.434;38.520;2022-07-04T06:53:47;100195.59;;;41.67;25.27
47761;BME280;33524;55.434;38.520;2022-07-04T06:56:16;100189.81;;;42.33;24.57
47761;BME280;33524;55.434;38.520;2022-07-04T06:58:44;100190.88;;;42.58;24.28
47761;BME280;33524;55.434;38.520;2022-07-04T07:01:12;100196.22;;;41.99;24.92
47761;BME280;33524;55.434;38.520;2022-07-04T07:03:42;100187.47;;;41.79;24.64
47761;BME280;33524;55.434;38.520;2022-07-04T07:06:10;100203.34;;;35.75;32.65
47761;BME280;33524;55.434;38.520;2022-07-04T07:08:38;100197.50;;;39.25;28.02
47761;BME280;33524;55.434;38.520;2022-07-04T07:11:07;100191.53;;;41.90;24.88
47761;BME280;33524;55.434;38.520;2022-07-04T07:13:48;100188.94;;;42.59;23.94
47761;BME280;33524;55.434;38.520;2022-07-04T07:16:19;100193.50;;;43.65;23.02
47761;BME280;33524;55.434;38.520;2022-07-04T07:18:47;100186.34;;;44.18;22.36
47761;BME280;33524;55.434;38.520;2022-07-04T07:21:16;100182.25;;;44.73;21.89
47761;BME280;33524;55.434;38.520;2022-07-04T07:23:45;100186.50;;;44.46;22.07
47761;BME280;33524;55.434;38.520;2022-07-04T07:26:13;100182.78;;;44.42;22.57
47761;BME280;33524;55.434;38.520;2022-07-04T07:28:41;100187.62;;;43.45;18.37
47761;BME280;33524;55.434;38.520;2022-07-04T07:31:09;100182.31;;;42.81;21.22
47761;BME280;33524;55.434;38.520;2022-07-04T07:33:37;100196.03;;;40.77;27.16
47761;BME280;33524;55.434;38.520;2022-07-04T07:36:05;100195.91;;;39.97;23.03
47761;BME280;33524;55.434;38.520;2022-07-04T07:38:33;100183.44;;;42.41;22.97
47761;BME280;33524;55.434;38.520;2022-07-04T07:41:02;100181.75;;;43.47;23.18
47761;BME280;33524;55.434;38.520;2022-07-04T07:43:29;100189.97;;;41.14;20.43
47761;BME280;33524;55.434;38.520;2022-07-04T07:45:58;100198.91;;;35.29;26.27
47761;BME280;33524;55.434;38.520;2022-07-04T07:48:26;100205.41;;;32.70;28.92
47761;BME280;33524;55.434;38.520;2022-07-04T07:50:55;100206.22;;;33.19;40.75
47761;BME280;33524;55.434;38.520;2022-07-04T07:53:23;100205.94;;;32.03;35.13
47761;BME280;33524;55.434;38.520;2022-07-04T07:55:51;100192.91;;;39.34;27.30
47761;BME280;33524;55.434;38.520;2022-07-04T07:58:19;100196.59;;;34.76;31.79
47761;BME280;33524;55.434;38.520;2022-07-04T08:00:47;100201.12;;;36.99;31.96
47761;BME280;33524;55.434;38.520;2022-07-04T08:03:23;100195.59;;;39.62;28.27
47761;BME280;33524;55.434;38.520;2022-07-04T08:06:10;100200.84;;;37.01;28.99
47761;BME280;33524;55.434;38.520;2022-07-04T08:08:43;100185.75;;;41.08;26.32
47761;BME280;33524;55.434;38.520;2022-07-04T08:11:11;100192.31;;;42.00;25.27
47761;BME280;33524;55.434;38.520;2022-07-04T08:13:40;100181.34;;;40.50;26.34
47761;BME280;33524;55.434;38.520;2022-07-04T08:16:10;100199.03;;;36.91;30.80
47761;BME280;33524;55.434;38.520;2022-07-04T08:18:38;100194.94;;;37.74;31.27
47761;BME280;33524;55.434;38.520;2022-07-04T08:21:06;100202.28;;;37.98;29.76
47761;BME280;33524;55.434;38.520;2022-07-04T08:23:40;100211.91;;;32.64;29.95
47761;BME280;33524;55.434;38.520;2022-07-04T08:26:29;100203.81;;;37.04;29.51
47761;BME280;33524;55.434;38.520;2022-07-04T08:28:57;100201.84;;;39.53;27.66
47761;BME280;33524;55.434;38.520;2022-07-04T08:31:27;100213.59;;;34.43;32.36
47761;BME280;33524;55.434;38.520;2022-07-04T08:34:15;100209.59;;;35.26;26.52
47761;BME280;33524;55.434;38.520;2022-07-04T08:36:43;100188.25;;;40.79;25.03
47761;BME280;33524;55.434;38.520;2022-07-04T08:39:11;100192.31;;;43.24;22.47
47761;BME280;33524;55.434;38.520;2022-07-04T08:41:41;100180.16;;;42.95;19.63
47761;BME280;33524;55.434;38.520;2022-07-04T08:44:10;100181.72;;;40.12;21.06
47761;BME280;33524;55.434;38.520;2022-07-04T08:46:40;100198.50;;;35.56;24.65
47761;BME280;33524;55.434;38.520;2022-07-04T08:49:18;100183.03;;;40.37;26.84
47761;BME280;33524;55.434;38.520;2022-07-04T08:52:08;100189.69;;;36.92;23.44
47761;BME280;33524;55.434;38.520;2022-07-04T08:54:38;100198.38;;;32.85;27.42
47761;BME280;33524;55.434;38.520;2022-07-04T08:57:25;100187.91;;;35.89;26.98
47761;BME280;33524;55.434;38.520;2022-07-04T09:00:23;100196.69;;;35.36;33.25
47761;BME280;33524;55.434;38.520;2022-07-04T09:02:51;100176.31;;;40.92;24.99
47761;BME280;33524;55.434;38.520;2022-07-04T09:05:19;100172.66;;;41.40;24.54
47761;BME280;33524;55.434;38.520;2022-07-04T09:07:47;100180.22;;;36.26;26.86
47761;BME280;33524;55.434;38.520;2022-07-04T09:10:16;100172.41;;;40.93;25.65
47761;BME280;33524;55.434;38.520;2022-07-04T09:12:44;100168.16;;;44.79;20.64
47761;BME280;33524;55.434;38.520;2022-07-04T09:15:32;100171.38;;;43.44;21.70
47761;BME280;33524;55.434;38.520;2022-07-04T09:18:01;100164.06;;;41.42;18.99
47761;BME280;33524;55.434;38.520;2022-07-04T09:20:33;100164.06;;;43.81;21.25
47761;BME280;33524;55.434;38.520;2022-07-04T09:23:00;100164.16;;;40.53;25.68
47761;BME280;33524;55.434;38.520;2022-07-04T09:25:45;100176.94;;;39.08;26.12
47761;BME280;33524;55.434;38.520;2022-07-04T09:28:26;100171.38;;;36.34;24.98
47761;BME280;33524;55.434;38.520;2022-07-04T09:30:55;100185.25;;;32.71;25.35
47761;BME280;33524;55.434;38.520;2022-07-04T09:33:23;100183.97;;;33.47;30.56
47761;BME280;33524;55.434;38.520;2022-07-04T09:35:51;100183.97;;;32.47;24.93
47761;BME280;33524;55.434;38.520;2022-07-04T09:38:22;100185.87;;;35.01;33.11
47761;BME280;33524;55.434;38.520;2022-07-04T09:40:52;100165.13;;;37.30;22.12
47761;BME280;33524;55.434;38.520;2022-07-04T09:43:58;100178.50;;;32.79;25.53
47761;BME280;33524;55.434;38.520;2022-07-04T09:46:44;100176.97;;;30.59;28.42
47761;BME280;33524;55.434;38.520;2022-07-04T09:49:12;100158.13;;;37.94;29.09
47761;BME280;33524;55.434;38.520;2022-07-04T09:51:51;100162.19;;;34.86;26.71
47761;BME280;33524;55.434;38.520;2022-07-04T09:54:28;100169.16;;;33.12;26.01
47761;BME280;33524;55.434;38.520;2022-07-04T09:57:01;100173.06;;;33.42;25.59
47761;BME280;33524;55.434;38.520;2022-07-04T09:59:30;100142.84;;;40.85;25.04
47761;BME280;33524;55.434;38.520;2022-07-04T10:02:10;100139.09;;;40.32;19.94
47761;BME280;33524;55.434;38.520;2022-07-04T10:04:50;100146.22;;;37.28;26.12
47761;BME280;33524;55.434;38.520;2022-07-04T10:07:39;100152.03;;;37.03;29.56
47761;BME280;33524;55.434;38.520;2022-07-04T10:10:31;100153.88;;;37.07;25.95
47761;BME280;33524;55.434;38.520;2022-07-04T10:13:03;100171.03;;;31.18;32.35
47761;BME280;33524;55.434;38.520;2022-07-04T10:15:34;100141.72;;;40.14;25.84
47761;BME280;33524;55.434;38.520;2022-07-04T10:18:05;100135.59;;;40.18;24.77
47761;BME280;33524;55.434;38.520;2022-07-04T10:20:35;100135.72;;;43.42;19.70
47761;BME280;33524;55.434;38.520;2022-07-04T10:23:03;100134.53;;;41.33;23.49
47761;BME280;33524;55.434;38.520;2022-07-04T10:25:31;100124.91;;;43.70;20.86
47761;BME280;33524;55.434;38.520;2022-07-04T10:27:59;100127.34;;;43.51;20.45
47761;BME280;33524;55.434;38.520;2022-07-04T10:30:36;100134.72;;;38.16;25.90
47761;BME280;33524;55.434;38.520;2022-07-04T10:33:27;100127.31;;;42.88;22.49
47761;BME280;33524;55.434;38.520;2022-07-04T10:36:00;100130.31;;;39.99;21.30
47761;BME280;33524;55.434;38.520;2022-07-04T10:38:33;100128.53;;;39.21;25.47
47761;BME280;33524;55.434;38.520;2022-07-04T10:41:04;100131.09;;;36.88;24.83
47761;BME280;33524;55.434;38.520;2022-07-04T10:51:41;100122.22;;;33.00;31.90
47761;BME280;33524;55.434;38.520;2022-07-04T10:56:49;100118.87;;;33.87;32.11
47761;BME280;33524;55.434;38.520;2022-07-04T10:59:23;100127.19;;;33.13;30.77
47761;BME280;33524;55.434;38.520;2022-07-04T11:05:03;100096.47;;;39.98;24.97
47761;BME280;33524;55.434;38.520;2022-07-04T11:17:54;100108.72;;;33.36;26.14
47761;BME280;33524;55.434;38.520;2022-07-04T11:20:24;100109.59;;;31.39;28.75
47761;BME280;33524;55.434;38.520;2022-07-04T11:22:53;100106.22;;;32.56;29.92
47761;BME280;33524;55.434;38.520;2022-07-04T11:25:30;100105.06;;;31.23;30.39
47761;BME280;33524;55.434;38.520;2022-07-04T11:31:05;100090.38;;;35.74;31.22
47761;BME280;33524;55.434;38.520;2022-07-04T11:33:36;100085.00;;;37.85;23.14
47761;BME280;33524;55.434;38.520;2022-07-04T11:36:12;100076.62;;;39.87;24.91
47761;BME280;33524;55.434;38.520;2022-07-04T11:38:59;100094.37;;;35.48;24.83
47761;BME280;33524;55.434;38.520;2022-07-04T11:41:34;100094.47;;;32.50;28.47
47761;BME280;33524;55.434;38.520;2022-07-04T11:44:34;100103.72;;;32.07;29.58
47761;BME280;33524;55.434;38.520;2022-07-04T11:47:23;100102.34;;;34.79;30.18
47761;BME280;33524;55.434;38.520;2022-07-04T11:52:23;100091.91;;;33.80;28.60
47761;BME280;33524;55.434;38.520;2022-07-04T11:55:16;100085.16;;;32.94;29.60
47761;BME280;33524;55.434;38.520;2022-07-04T11:57:46;100092.94;;;32.65;29.54
47761;BME280;33524;55.434;38.520;2022-07-04T12:00:17;100087.19;;;33.40;28.56
47761;BME280;33524;55.434;38.520;2022-07-04T12:02:48;100089.66;;;34.23;26.60
47761;BME280;33524;55.434;38.520;2022-07-04T12:05:18;100078.44;;;34.45;26.28
47761;BME280;33524;55.434;38.520;2022-07-04T12:07:48;100079.09;;;32.82;26.39
47761;BME280;33524;55.434;38.520;2022-07-04T12:10:36;100082.59;;;33.81;27.04
47761;BME280;33524;55.434;38.520;2022-07-04T12:13:14;100079.16;;;34.82;25.05
47761;BME280;33524;55.434;38.520;2022-07-04T12:15:45;100074.56;;;35.61;24.19
47761;BME280;33524;55.434;38.520;2022-07-04T12:20:52;100077.16;;;33.91;26.18
47761;BME280;33524;55.434;38.520;2022-07-04T12:23:22;100073.06;;;32.64;26.65
47761;BME280;33524;55.434;38.520;2022-07-04T12:25:53;100070.50;;;33.15;27.01
47761;BME280;33524;55.434;38.520;2022-07-04T12:28:22;100072.81;;;32.28;28.14
47761;BME280;33524;55.434;38.520;2022-07-04T12:30:57;100066.28;;;32.24;28.00
47761;BME280;33524;55.434;38.520;2022-07-04T12:33:27;100061.59;;;34.07;26.63
47761;BME280;33524;55.434;38.520;2022-07-04T12:35:57;100050.41;;;35.39;24.77
47761;BME280;33524;55.434;38.520;2022-07-04T12:48:39;100043.28;;;38.02;21.29
47761;BME280;33524;55.434;38.520;2022-07-04T12:51:11;100031.22;;;38.94;21.03
47761;BME280;33524;55.434;38.520;2022-07-04T12:57:15;100027.44;;;40.34;19.41
47761;BME280;33524;55.434;38.520;2022-07-04T12:59:44;100017.97;;;40.76;18.70
47761;BME280;33524;55.434;38.520;2022-07-04T13:02:13;100022.50;;;40.14;18.54
47761;BME280;33524;55.434;38.520;2022-07-04T13:04:42;100027.22;;;39.14;19.03
47761;BME280;33524;55.434;38.520;2022-07-04T13:07:15;100023.28;;;40.06;18.78
47761;BME280;33524;55.434;38.520;2022-07-04T13:09:45;100021.66;;;39.73;18.63
47761;BME280;33524;55.434;38.520;2022-07-04T13:12:14;100018.12;;;40.13;18.43
47761;BME280;33524;55.434;38.520;2022-07-04T13:14:58;100022.69;;;40.26;18.39
47761;BME280;33524;55.434;38.520;2022-07-04T13:17:29;100012.12;;;41.38;17.48
47761;BME280;33524;55.434;38.520;2022-07-04T13:19:57;100012.63;;;41.14;17.90
47761;BME280;33524;55.434;38.520;2022-07-04T13:22:24;100004.03;;;41.15;17.56
47761;BME280;33524;55.434;38.520;2022-07-04T13:24:53;100003.72;;;41.17;17.01
47761;BME280;33524;55.434;38.520;2022-07-04T13:27:20;100000.47;;;41.24;16.35
47761;BME280;33524;55.434;38.520;2022-07-04T13:29:48;100005.38;;;42.21;17.11
47761;BME280;33524;55.434;38.520;2022-07-04T13:32:16;99999.69;;;42.98;16.92
47761;BME280;33524;55.434;38.520;2022-07-04T13:34:44;99998.84;;;43.19;15.93
47761;BME280;33524;55.434;38.520;2022-07-04T13:37:12;99987.19;;;43.59;15.41
47761;BME280;33524;55.434;38.520;2022-07-04T13:39:43;99990.47;;;43.73;16.42
47761;BME280;33524;55.434;38.520;2022-07-04T13:42:19;100003.22;;;40.89;17.87
47761;BME280;33524;55.434;38.520;2022-07-04T13:45:07;100012.09;;;38.25;20.34